createdAt,value
2022-08-26T00:02:15.364Z,31
2022-08-26T00:05:14.934Z,30
2022-08-26T00:07:14.955Z,33
2022-08-26T00:10:14.951Z,29
2022-08-26T00:13:14.963Z,27
2022-08-26T00:16:15.006Z,32
2022-08-26T00:19:14.929Z,28
2022-08-26T00:21:14.956Z,30
2022-08-26T00:23:14.960Z,32
2022-08-26T00:25:15.189Z,33
2022-08-26T00:28:46.908Z,31
2022-08-26T00:31:14.961Z,29
2022-08-26T00:34:15.283Z,29
2022-08-26T00:36:19.910Z,28
2022-08-26T00:38:14.999Z,33
2022-08-26T00:41:14.941Z,30
2022-08-26T00:43:14.977Z,34
2022-08-26T00:46:14.996Z,37
2022-08-26T00:48:14.976Z,32
2022-08-26T00:50:14.977Z,29
2022-08-26T00:53:14.967Z,30
2022-08-26T00:56:14.963Z,31
2022-08-26T00:59:14.962Z,33
2022-08-26T01:01:15.065Z,30
2022-08-26T01:06:14.960Z,34
2022-08-26T01:08:14.973Z,32
2022-08-26T01:11:14.944Z,31
2022-08-26T01:13:14.975Z,32
2022-08-26T01:16:15.019Z,30
2022-08-26T01:18:14.969Z,36
2022-08-26T01:21:15.008Z,32
2022-08-26T01:24:14.960Z,30
2022-08-26T01:26:15.317Z,33
2022-08-26T01:28:14.947Z,34
2022-08-26T01:31:14.974Z,32
2022-08-26T01:33:14.968Z,34
2022-08-26T01:36:14.950Z,32
2022-08-26T01:38:14.949Z,32
2022-08-26T01:42:15.027Z,32
2022-08-26T01:45:15.703Z,31
2022-08-26T01:48:14.955Z,33
2022-08-26T01:51:14.991Z,36
2022-08-26T01:53:14.975Z,32
2022-08-26T01:55:15.006Z,31
2022-08-26T01:58:14.956Z,34
2022-08-26T02:00:16.192Z,35
2022-08-26T02:03:14.940Z,33
2022-08-26T02:05:15.060Z,34
2022-08-26T02:08:14.983Z,38
2022-08-26T02:10:14.973Z,35
2022-08-26T02:13:14.988Z,32
2022-08-26T02:16:15.074Z,35
2022-08-26T02:18:14.993Z,33
2022-08-26T02:21:14.990Z,35
2022-08-26T02:23:14.984Z,38
2022-08-26T02:26:17.111Z,34
2022-08-26T02:29:14.994Z,35
2022-08-26T02:31:15.069Z,31
2022-08-26T02:34:15.099Z,34
2022-08-26T02:36:15.007Z,34
2022-08-26T02:39:18.029Z,38
2022-08-26T02:41:15.027Z,37
2022-08-26T02:44:14.972Z,31
2022-08-26T02:46:21.389Z,35
2022-08-26T02:48:14.970Z,33
2022-08-26T02:50:14.985Z,32
2022-08-26T02:52:15.005Z,33
2022-08-26T02:55:15.013Z,32
2022-08-26T02:57:15.019Z,34
2022-08-26T02:59:15.048Z,32
2022-08-26T03:02:15.049Z,37
2022-08-26T03:04:15.267Z,34
2022-08-26T03:07:15.002Z,35
2022-08-26T03:09:18.586Z,34
2022-08-26T03:12:15.005Z,39
2022-08-26T03:14:15.007Z,39
2022-08-26T03:17:15.004Z,35
2022-08-26T03:19:14.999Z,36
2022-08-26T03:22:15.009Z,39
2022-08-26T03:25:15.019Z,36
2022-08-26T03:27:15.039Z,38
2022-08-26T03:30:15.014Z,36
2022-08-26T03:33:15.034Z,34
2022-08-26T03:36:15.064Z,42
2022-08-26T03:39:15.040Z,35
2022-08-26T03:42:15.008Z,39
2022-08-26T03:44:15.032Z,39
2022-08-26T03:47:15.003Z,37
2022-08-26T03:49:15.115Z,42
2022-08-26T03:52:15.048Z,35
2022-08-26T03:55:15.025Z,36
2022-08-26T03:58:14.990Z,35
2022-08-26T04:00:15.027Z,37
2022-08-26T04:02:15.030Z,34
2022-08-26T04:05:15.062Z,39
2022-08-26T04:08:15.048Z,34
2022-08-26T04:11:15.049Z,38
2022-08-26T04:14:17.550Z,40
2022-08-26T04:16:15.130Z,40
2022-08-26T04:19:15.019Z,38
2022-08-26T04:21:15.257Z,36
2022-08-26T04:23:15.048Z,37
2022-08-26T04:26:15.041Z,40
2022-08-26T04:29:15.025Z,42
2022-08-26T04:32:15.058Z,38
2022-08-26T04:35:15.036Z,39
2022-08-26T04:38:15.064Z,44
2022-08-26T04:41:16.936Z,38
2022-08-26T04:44:15.059Z,36
2022-08-26T04:46:15.145Z,39
2022-08-26T04:49:15.042Z,41
2022-08-26T04:52:15.046Z,38
2022-08-26T04:54:15.055Z,38
2022-08-26T04:57:15.022Z,43
2022-08-26T05:00:15.031Z,38
2022-08-26T05:02:15.075Z,41
2022-08-26T05:05:15.010Z,42
2022-08-26T05:07:15.076Z,38
2022-08-26T05:10:15.088Z,40
2022-08-26T05:13:15.637Z,42
2022-08-26T05:15:15.080Z,40
2022-08-26T05:18:15.050Z,45
2022-08-26T05:20:15.090Z,39
2022-08-26T05:23:15.031Z,42
2022-08-26T05:25:15.062Z,38
2022-08-26T05:28:15.042Z,40
2022-08-26T05:33:15.361Z,47
2022-08-26T05:36:15.066Z,41
2022-08-26T05:38:15.270Z,43
2022-08-26T05:41:15.092Z,41
2022-08-26T05:44:15.103Z,40
2022-08-26T05:47:15.047Z,42
2022-08-26T05:49:15.073Z,42
2022-08-26T05:51:15.070Z,40
2022-08-26T05:54:15.761Z,38
2022-08-26T05:56:15.088Z,40
2022-08-26T05:58:15.092Z,40
2022-08-26T06:00:15.088Z,40
2022-08-26T06:02:15.094Z,40
2022-08-26T06:05:15.056Z,40
2022-08-26T06:07:15.100Z,43
2022-08-26T06:10:31.366Z,44
2022-08-26T06:12:15.148Z,46
2022-08-26T06:14:15.105Z,39
2022-08-26T06:17:15.100Z,42
2022-08-26T06:20:15.081Z,41
2022-08-26T06:23:15.111Z,43
2022-08-26T06:26:15.075Z,41
2022-08-26T06:29:15.474Z,45
2022-08-26T06:31:15.163Z,40
2022-08-26T06:34:15.043Z,41
2022-08-26T06:36:15.092Z,42
2022-08-26T06:38:15.100Z,40
2022-08-26T06:40:15.161Z,36
2022-08-26T06:43:15.085Z,42
2022-08-26T06:45:15.122Z,38
2022-08-26T06:48:15.103Z,39
2022-08-26T06:51:15.072Z,39
2022-08-26T06:54:15.068Z,37
2022-08-26T06:56:15.106Z,40
2022-08-26T06:58:15.109Z,39
2022-08-26T07:01:15.133Z,39
2022-08-26T07:03:15.153Z,43
2022-08-26T07:06:15.112Z,41
2022-08-26T07:08:15.062Z,35
2022-08-26T07:11:15.114Z,42
2022-08-26T07:14:15.081Z,41
2022-08-26T07:16:15.180Z,41
2022-08-26T07:19:15.109Z,40
2022-08-26T07:22:15.111Z,43
2022-08-26T07:25:15.117Z,42
2022-08-26T07:27:15.199Z,41
2022-08-26T07:30:15.091Z,43
2022-08-26T07:33:15.092Z,40
2022-08-26T07:35:15.112Z,39
2022-08-26T07:37:15.151Z,36
2022-08-26T07:40:15.156Z,40
2022-08-26T07:42:15.113Z,37
2022-08-26T07:45:15.107Z,38
2022-08-26T07:48:15.097Z,35
2022-08-26T07:51:15.116Z,40
2022-08-26T07:53:15.119Z,39
2022-08-26T07:55:15.147Z,38
2022-08-26T07:57:15.655Z,39
2022-08-26T08:00:15.109Z,35
2022-08-26T08:03:15.135Z,37
2022-08-26T08:05:15.166Z,35
2022-08-26T08:08:21.889Z,34
2022-08-26T08:11:19.870Z,33
2022-08-26T08:13:15.130Z,34
2022-08-26T08:15:15.111Z,28
2022-08-26T08:18:15.415Z,34
2022-08-26T08:20:15.124Z,41
2022-08-26T08:22:17.646Z,30
2022-08-26T08:25:15.109Z,31
2022-08-26T08:27:17.204Z,33
2022-08-26T08:30:15.142Z,35
2022-08-26T08:33:15.136Z,33
2022-08-26T08:36:18.407Z,34
2022-08-26T08:38:15.135Z,34
2022-08-26T08:41:15.108Z,37
2022-08-26T08:43:15.111Z,38
2022-08-26T08:45:15.132Z,36
2022-08-26T08:48:15.112Z,36
2022-08-26T08:50:15.131Z,39
2022-08-26T08:53:15.108Z,36
2022-08-26T08:55:17.998Z,32
2022-08-26T08:58:15.124Z,40
2022-08-26T09:01:15.169Z,34
2022-08-26T09:03:15.123Z,36
2022-08-26T09:05:15.364Z,38
2022-08-26T09:08:15.121Z,36
2022-08-26T09:10:15.126Z,37
2022-08-26T09:12:15.125Z,34
2022-08-26T09:14:15.569Z,35
2022-08-26T09:17:15.134Z,40
2022-08-26T09:19:15.155Z,34
2022-08-26T09:21:15.166Z,34
2022-08-26T09:23:15.154Z,40
2022-08-26T09:26:15.142Z,37
2022-08-26T09:29:15.222Z,33
2022-08-26T09:31:15.186Z,32
2022-08-26T09:34:17.213Z,34
2022-08-26T09:37:15.141Z,36
2022-08-26T09:39:15.238Z,37
2022-08-26T09:42:16.743Z,31
2022-08-26T09:45:15.141Z,38
2022-08-26T09:48:17.224Z,30
2022-08-26T09:50:15.206Z,36
2022-08-26T09:53:15.126Z,39
2022-08-26T09:55:15.594Z,41
2022-08-26T09:58:15.167Z,38
2022-08-26T10:01:15.204Z,35
2022-08-26T10:04:15.220Z,30
2022-08-26T10:06:15.150Z,38
2022-08-26T10:09:15.172Z,37
2022-08-26T10:12:15.173Z,40
2022-08-26T10:15:15.182Z,34
2022-08-26T10:18:15.162Z,36
2022-08-26T10:20:23.003Z,37
2022-08-26T10:23:15.181Z,33
2022-08-26T10:26:15.187Z,40
2022-08-26T10:29:15.165Z,32
2022-08-26T10:31:15.479Z,34
2022-08-26T10:34:15.163Z,33
2022-08-26T10:37:15.951Z,35
2022-08-26T10:40:15.222Z,33
2022-08-26T10:42:15.223Z,31
2022-08-26T10:45:15.425Z,31
2022-08-26T10:48:15.138Z,34
2022-08-26T10:50:15.198Z,34
2022-08-26T10:53:15.156Z,35
2022-08-26T10:56:15.647Z,39
2022-08-26T10:58:15.648Z,36
2022-08-26T11:01:15.943Z,33
2022-08-26T11:04:15.222Z,30
2022-08-26T11:06:15.209Z,38
2022-08-26T11:09:15.199Z,34
2022-08-26T11:12:15.193Z,38
2022-08-26T11:15:15.218Z,32
2022-08-26T11:18:15.382Z,35
2022-08-26T11:21:15.137Z,34
2022-08-26T11:23:15.169Z,32
2022-08-26T11:25:15.170Z,36
2022-08-26T11:28:15.202Z,34
2022-08-26T11:31:15.232Z,31
2022-08-26T11:33:15.611Z,34
2022-08-26T11:36:15.204Z,34
2022-08-26T11:39:15.158Z,32
2022-08-26T11:41:15.197Z,32
2022-08-26T11:44:15.196Z,34
2022-08-26T11:47:15.180Z,32
2022-08-26T11:49:15.192Z,34
2022-08-26T11:52:15.170Z,31
2022-08-26T11:54:15.172Z,33
2022-08-26T11:56:15.176Z,34
2022-08-26T11:58:15.207Z,34
2022-08-26T12:01:15.232Z,36
2022-08-26T12:03:15.350Z,37
2022-08-26T12:06:15.239Z,31
2022-08-26T12:08:15.209Z,34
2022-08-26T12:10:15.200Z,35
2022-08-26T12:13:15.186Z,36
2022-08-26T12:15:15.175Z,30
2022-08-26T12:17:15.220Z,30
2022-08-26T12:20:15.166Z,30
2022-08-26T12:22:15.180Z,31
2022-08-26T12:25:15.192Z,27
2022-08-26T12:28:15.203Z,31
2022-08-26T12:31:15.256Z,31
2022-08-26T12:33:21.967Z,33
2022-08-26T12:35:15.174Z,29
2022-08-26T12:37:15.225Z,31
2022-08-26T12:40:15.211Z,29
2022-08-26T12:42:15.204Z,25
2022-08-26T12:45:15.242Z,28
2022-08-26T12:48:15.191Z,28
2022-08-26T12:51:15.251Z,28
2022-08-26T12:53:15.266Z,27
2022-08-26T12:56:15.219Z,27
2022-08-26T12:58:15.258Z,31
2022-08-26T13:01:15.297Z,33
2022-08-26T13:03:15.253Z,29
2022-08-26T13:05:31.080Z,33
2022-08-26T13:08:15.217Z,36
2022-08-26T13:10:15.264Z,34
2022-08-26T13:12:15.263Z,35
2022-08-26T13:15:15.218Z,35
2022-08-26T13:18:15.189Z,34
2022-08-26T13:20:15.639Z,37
2022-08-26T13:23:15.469Z,39
2022-08-26T13:25:15.218Z,36
2022-08-26T13:27:15.209Z,40
2022-08-26T13:29:15.217Z,36
2022-08-26T13:32:15.213Z,36
2022-08-26T13:35:15.262Z,42
2022-08-26T13:38:18.612Z,34
2022-08-26T13:40:15.276Z,35
2022-08-26T13:43:15.196Z,40
2022-08-26T13:46:15.305Z,33
2022-08-26T13:48:15.230Z,35
2022-08-26T13:51:15.244Z,36
2022-08-26T13:54:15.185Z,32
2022-08-26T13:56:15.250Z,40
2022-08-26T13:59:15.241Z,40
2022-08-26T14:01:15.374Z,36
2022-08-26T14:04:15.280Z,34
2022-08-26T14:06:15.288Z,41
2022-08-26T14:09:15.226Z,38
2022-08-26T14:12:15.235Z,43
2022-08-26T14:14:15.263Z,37
2022-08-26T14:17:15.259Z,42
2022-08-26T14:19:15.239Z,31
2022-08-26T14:22:15.504Z,36
2022-08-26T14:25:15.278Z,39
2022-08-26T14:28:15.297Z,41
2022-08-26T14:33:15.555Z,35
2022-08-26T14:36:15.286Z,30
2022-08-26T14:38:15.283Z,34
2022-08-26T14:41:15.287Z,34
2022-08-26T14:43:15.328Z,30
2022-08-26T14:46:15.375Z,27
2022-08-26T14:49:15.261Z,31
2022-08-26T14:51:15.261Z,28
2022-08-26T14:53:15.291Z,28
2022-08-26T14:56:16.674Z,31
2022-08-26T14:58:15.320Z,34
2022-08-26T15:01:15.350Z,31
2022-08-26T15:06:15.293Z,30
2022-08-26T15:08:15.344Z,31
2022-08-26T15:11:15.280Z,29
2022-08-26T15:13:15.354Z,34
2022-08-26T15:16:15.364Z,34
2022-08-26T15:18:15.308Z,37
2022-08-26T15:21:15.268Z,36
2022-08-26T15:24:15.315Z,36
2022-08-26T15:27:15.292Z,38
2022-08-26T15:29:15.280Z,34
2022-08-26T15:32:15.326Z,33
2022-08-26T15:35:15.278Z,31
2022-08-26T15:38:15.318Z,32
2022-08-26T15:41:15.312Z,30
2022-08-26T15:44:15.296Z,31
2022-08-26T15:46:15.326Z,32
2022-08-26T15:49:17.836Z,38
2022-08-26T15:51:15.265Z,44
2022-08-26T15:53:15.295Z,42
2022-08-26T15:55:15.281Z,42
2022-08-26T15:58:15.281Z,48
2022-08-26T16:01:15.293Z,47
2022-08-26T16:03:15.246Z,52
2022-08-26T16:05:15.331Z,47
2022-08-26T16:08:15.280Z,50
2022-08-26T16:11:15.269Z,52
2022-08-26T16:13:15.332Z,47
2022-08-26T16:16:15.377Z,50
2022-08-26T16:19:15.339Z,56
2022-08-26T16:22:15.340Z,48
2022-08-26T16:24:15.307Z,49
2022-08-26T16:27:15.276Z,49
2022-08-26T16:29:15.291Z,49
2022-08-26T16:31:15.434Z,54
2022-08-26T16:34:15.322Z,48
2022-08-26T16:37:15.303Z,46
2022-08-26T16:40:15.317Z,49
2022-08-26T16:42:15.312Z,48
2022-08-26T16:44:15.320Z,51
2022-08-26T16:47:15.315Z,54
2022-08-26T16:49:15.328Z,45
2022-08-26T16:52:15.343Z,46
2022-08-26T16:54:15.351Z,50
2022-08-26T16:57:15.374Z,51
2022-08-26T16:59:15.419Z,56
2022-08-26T17:02:15.451Z,50
2022-08-26T17:05:15.364Z,51
2022-08-26T17:08:24.338Z,55
2022-08-26T17:11:15.359Z,53
2022-08-26T17:14:15.332Z,53
2022-08-26T17:17:15.339Z,56
2022-08-26T17:19:15.365Z,55
2022-08-26T17:22:15.343Z,56
2022-08-26T17:25:15.353Z,51
2022-08-26T17:28:15.354Z,50
2022-08-26T17:31:15.373Z,53
2022-08-26T17:33:15.333Z,53
2022-08-26T17:35:15.342Z,55
2022-08-26T17:38:15.338Z,55
2022-08-26T17:41:15.417Z,57
2022-08-26T17:44:15.336Z,59
2022-08-26T17:47:15.339Z,60
2022-08-26T17:49:15.366Z,56
2022-08-26T17:52:15.327Z,62
2022-08-26T17:55:15.347Z,57
2022-08-26T17:58:15.292Z,55
2022-08-26T18:00:15.329Z,59
2022-08-26T18:03:15.330Z,61
2022-08-26T18:06:15.321Z,61
2022-08-26T18:08:15.320Z,61
2022-08-26T18:10:15.350Z,56
2022-08-26T18:12:15.355Z,64
2022-08-26T18:15:15.376Z,60
2022-08-26T18:17:15.374Z,60
2022-08-26T18:20:15.369Z,62
2022-08-26T18:22:15.760Z,63
2022-08-26T18:25:15.384Z,60
2022-08-26T18:27:15.423Z,61
2022-08-26T18:30:16.687Z,64
2022-08-26T18:33:15.364Z,63
2022-08-26T18:36:15.386Z,70
2022-08-26T18:38:15.591Z,65
2022-08-26T18:41:15.399Z,59
2022-08-26T18:43:15.430Z,58
2022-08-26T18:46:15.463Z,65
2022-08-26T18:49:15.416Z,61
2022-08-26T18:52:15.357Z,57
2022-08-26T18:54:15.420Z,59
2022-08-26T18:56:16.656Z,58
2022-08-26T18:59:15.373Z,58
2022-08-26T19:02:15.450Z,58
2022-08-26T19:04:15.648Z,65
2022-08-26T19:07:15.366Z,56
2022-08-26T19:09:15.368Z,63
2022-08-26T19:12:15.363Z,56
2022-08-26T19:15:15.371Z,58
2022-08-26T19:17:15.385Z,60
2022-08-26T19:20:15.400Z,57
2022-08-26T19:23:28.481Z,58
2022-08-26T19:25:15.400Z,57
2022-08-26T19:28:15.881Z,65
2022-08-26T19:31:15.459Z,63
2022-08-26T19:34:15.361Z,68
2022-08-26T19:36:47.560Z,60
2022-08-26T19:38:15.437Z,64
2022-08-26T19:41:15.411Z,58
2022-08-26T19:44:15.398Z,66
2022-08-26T19:47:15.357Z,62
2022-08-26T19:49:15.410Z,61
2022-08-26T19:51:15.402Z,66
2022-08-26T19:53:15.385Z,60
2022-08-26T19:56:15.474Z,66
2022-08-26T19:59:15.388Z,65
2022-08-26T20:01:15.462Z,69
2022-08-26T20:03:15.882Z,66
2022-08-26T20:06:47.867Z,69
2022-08-26T20:08:22.322Z,67
2022-08-26T20:11:15.425Z,67
2022-08-26T20:13:15.423Z,64
2022-08-26T20:16:15.511Z,64
2022-08-26T20:18:15.422Z,65
2022-08-26T20:20:33.085Z,69
2022-08-26T20:23:15.391Z,67
2022-08-26T20:25:15.417Z,68
2022-08-26T20:28:15.452Z,62
2022-08-26T20:31:15.446Z,69
2022-08-26T20:33:16.429Z,66
2022-08-26T20:35:15.414Z,63
2022-08-26T20:38:17.539Z,70
2022-08-26T20:40:15.481Z,55
2022-08-26T20:42:19.972Z,62
2022-08-26T20:45:15.407Z,62
2022-08-26T20:48:15.444Z,65
2022-08-26T20:51:15.414Z,66
2022-08-26T20:54:15.419Z,74
2022-08-26T20:56:15.434Z,116
2022-08-26T20:58:15.453Z,72
2022-08-26T21:01:15.475Z,52
2022-08-26T21:04:15.448Z,61
2022-08-26T21:07:15.439Z,91
2022-08-26T21:22:15.456Z,57
2022-08-26T21:25:15.433Z,59
2022-08-26T21:28:15.452Z,57
2022-08-26T21:30:15.487Z,64
2022-08-26T21:32:15.652Z,62
2022-08-26T21:36:15.749Z,67
2022-08-26T21:39:15.451Z,69
2022-08-26T21:41:15.462Z,74
2022-08-26T21:43:16.227Z,74
2022-08-26T21:45:15.490Z,85
2022-08-26T21:48:15.486Z,83
2022-08-26T21:51:15.421Z,79
2022-08-26T21:53:15.437Z,81
2022-08-26T21:55:15.427Z,76
2022-08-26T21:57:15.440Z,76
2022-08-26T22:00:15.408Z,83
2022-08-26T22:02:15.503Z,82
2022-08-26T22:04:15.428Z,81
2022-08-26T22:06:15.413Z,84
2022-08-26T22:08:15.452Z,88
2022-08-26T22:11:15.428Z,95
2022-08-26T22:13:15.520Z,107
2022-08-26T22:16:15.496Z,105
2022-08-26T22:19:17.082Z,97
2022-08-26T22:22:15.438Z,96
2022-08-26T22:24:15.434Z,88
2022-08-26T22:27:15.477Z,94
2022-08-26T22:30:15.489Z,95
2022-08-26T22:33:15.441Z,84
2022-08-26T22:35:28.572Z,93
2022-08-26T22:38:15.456Z,98
2022-08-26T22:41:15.466Z,93
2022-08-26T22:44:15.443Z,96
2022-08-26T22:46:15.503Z,98
2022-08-26T22:49:15.456Z,96
2022-08-26T22:51:15.510Z,84
2022-08-26T22:54:15.427Z,95
2022-08-26T22:56:15.497Z,97
2022-08-26T22:59:15.460Z,94
2022-08-26T23:01:15.478Z,101
2022-08-26T23:04:15.472Z,104
2022-08-26T23:06:15.513Z,101
2022-08-26T23:09:15.478Z,102
2022-08-26T23:12:15.496Z,105
2022-08-26T23:15:15.481Z,100
2022-08-26T23:18:15.490Z,98
2022-08-26T23:20:15.503Z,96
2022-08-26T23:22:15.522Z,105
2022-08-26T23:24:15.521Z,101
2022-08-26T23:27:15.474Z,99
2022-08-26T23:29:15.492Z,103
2022-08-26T23:31:15.539Z,97
2022-08-26T23:33:15.562Z,91
2022-08-26T23:36:17.674Z,101
2022-08-26T23:39:15.486Z,105
2022-08-26T23:41:15.491Z,98
2022-08-26T23:44:15.513Z,80
2022-08-26T23:47:15.489Z,105
2022-08-26T23:49:15.496Z,98
2022-08-26T23:51:15.891Z,98
2022-08-26T23:54:15.477Z,97
2022-08-26T23:56:15.489Z,101
2022-08-26T23:59:15.461Z,100
